Time;durP1;ratioP1;P1;durP2;ratioP2;P2;SDS_P1;SDS_P2;PMS_P1;PMS_P2;Temp;Humidity;BMP_temperature;BMP_pressure;BME280_temperature;BME280_humidity;BME280_pressure;Samples;Min_cycle;Max_cycle;Signal;HPM_P1;HPM_P2
2022/09/04 00:00:20;;;;;;;3.80;3.60;;;17.40;87.80;;;;;;5037943;28;20426;-71
2022/09/04 00:03:14;;;;;;;3.80;3.50;;;17.40;88.00;;;;;;5034426;28;20475;-71
2022/09/04 00:05:48;;;;;;;4.35;3.95;;;17.40;87.90;;;;;;5040398;28;20440;-70
2022/09/04 00:08:33;;;;;;;4.05;3.65;;;17.40;87.90;;;;;;5035436;28;20449;-71
2022/09/04 00:11:07;;;;;;;4.30;3.90;;;17.40;87.80;;;;;;5032384;28;20432;-72
2022/09/04 00:13:39;;;;;;;4.20;3.90;;;17.40;88.00;;;;;;5034373;28;20751;-72
2022/09/04 00:16:10;;;;;;;4.60;4.30;;;17.40;88.10;;;;;;5041093;28;20799;-70
2022/09/04 00:18:40;;;;;;;4.63;4.32;;;17.30;88.00;;;;;;5040558;28;20424;-72
2022/09/04 00:21:13;;;;;;;4.50;4.10;;;17.30;88.10;;;;;;5047915;28;20439;-70
2022/09/04 00:23:45;;;;;;;4.47;4.10;;;17.30;88.20;;;;;;5043632;28;20949;-70
2022/09/04 00:26:20;;;;;;;4.78;4.47;;;17.30;88.50;;;;;;5048530;28;20872;-72
2022/09/04 00:28:49;;;;;;;4.20;3.90;;;17.30;88.50;;;;;;5038485;28;20432;-70
2022/09/04 00:31:24;;;;;;;4.73;4.43;;;17.20;88.60;;;;;;5045256;28;20443;-71
2022/09/04 00:34:01;;;;;;;5.10;4.70;;;17.30;88.50;;;;;;5043348;28;20432;-70
2022/09/04 00:36:29;;;;;;;4.55;4.25;;;17.20;88.30;;;;;;5042865;28;20794;-70
2022/09/04 00:39:02;;;;;;;5.07;4.68;;;17.20;88.70;;;;;;5047718;28;20551;-70
2022/09/04 00:41:32;;;;;;;5.35;4.85;;;17.20;89.00;;;;;;5043562;28;20451;-70
2022/09/04 00:44:18;;;;;;;4.80;4.50;;;17.20;89.20;;;;;;5076195;22;20447;-70
2022/09/04 00:47:17;;;;;;;5.22;4.93;;;17.20;89.10;;;;;;5054147;28;20507;-72
2022/09/04 00:49:58;;;;;;;5.80;5.30;;;17.10;89.10;;;;;;5064800;28;20429;-71
2022/09/04 00:52:53;;;;;;;5.20;4.90;;;17.10;89.10;;;;;;5073956;28;20478;-71
2022/09/04 00:55:44;;;;;;;5.40;5.00;;;17.10;89.20;;;;;;5069681;28;20427;-71
2022/09/04 00:58:33;;;;;;;5.40;5.00;;;17.10;89.50;;;;;;5069108;28;20431;-70
2022/09/04 01:01:00;;;;;;;5.75;5.25;;;17.10;89.60;;;;;;5073616;28;20784;-70
2022/09/04 01:03:44;;;;;;;5.80;5.30;;;17.10;89.80;;;;;;5070840;28;20431;-73
2022/09/04 01:06:32;;;;;;;5.90;5.50;;;17.10;90.00;;;;;;5065919;28;20435;-70
2022/09/04 01:09:34;;;;;;;6.10;5.70;;;17.00;90.00;;;;;;5064682;28;20809;-72
2022/09/04 01:12:10;;;;;;;6.50;6.00;;;17.00;90.20;;;;;;5068050;28;20534;-71
2022/09/04 01:14:41;;;;;;;6.00;5.50;;;17.00;90.30;;;;;;5066704;28;20537;-71
2022/09/04 01:17:18;;;;;;;6.00;5.50;;;17.00;90.40;;;;;;5065344;28;20427;-70
2022/09/04 01:19:55;;;;;;;6.07;5.68;;;17.00;90.40;;;;;;5067910;28;20433;-72
2022/09/04 01:22:49;;;;;;;6.22;5.72;;;16.90;90.40;;;;;;5068429;28;20434;-72
2022/09/04 01:25:32;;;;;;;6.68;6.18;;;16.90;90.40;;;;;;5063059;28;20450;-70
2022/09/04 01:28:05;;;;;;;6.85;6.35;;;16.90;90.50;;;;;;5063254;28;20435;-70
2022/09/04 01:30:40;;;;;;;6.70;6.20;;;17.00;90.50;;;;;;5061798;28;20439;-70
2022/09/04 01:33:15;;;;;;;7.18;6.68;;;16.90;90.50;;;;;;5066361;28;20439;-73
2022/09/04 01:35:50;;;;;;;7.23;6.73;;;16.90;90.60;;;;;;5064196;28;20491;-71
2022/09/04 01:38:25;;;;;;;7.50;6.90;;;16.90;90.60;;;;;;5061139;28;20479;-72
2022/09/04 01:40:59;;;;;;;7.10;6.50;;;16.90;90.80;;;;;;5067243;28;20896;-71
2022/09/04 01:43:27;;;;;;;7.30;6.80;;;16.90;90.80;;;;;;5064551;28;20431;-71
2022/09/04 01:46:26;;;;;;;7.10;6.50;;;16.90;90.80;;;;;;5064595;28;20438;-71
2022/09/04 01:49:01;;;;;;;7.33;6.83;;;16.90;90.80;;;;;;5055508;28;20459;-72
2022/09/04 01:51:38;;;;;;;7.27;6.77;;;16.90;90.70;;;;;;5059420;28;20458;-72
2022/09/04 01:54:19;;;;;;;7.00;6.50;;;16.80;90.80;;;;;;5069866;28;20862;-71
2022/09/04 01:56:54;;;;;;;7.32;6.72;;;16.80;90.90;;;;;;5060076;28;20429;-70
2022/09/04 01:59:29;;;;;;;7.10;6.60;;;16.80;90.90;;;;;;5058713;28;20433;-71
2022/09/04 02:02:04;;;;;;;7.20;6.70;;;16.80;91.10;;;;;;5070016;28;20467;-72
2022/09/04 02:04:39;;;;;;;7.60;7.00;;;16.80;91.10;;;;;;5066532;28;20441;-72
2022/09/04 02:07:16;;;;;;;6.90;6.40;;;16.80;90.90;;;;;;5067659;28;20431;-72
2022/09/04 02:09:53;;;;;;;7.60;7.00;;;16.70;91.00;;;;;;5062485;28;20431;-71
2022/09/04 02:12:34;;;;;;;7.97;7.38;;;16.70;91.10;;;;;;5062384;28;20439;-72
2022/09/04 02:15:11;;;;;;;7.88;7.28;;;16.70;91.20;;;;;;5061879;28;20491;-72
2022/09/04 02:17:43;;;;;;;8.20;7.60;;;16.70;91.30;;;;;;5060792;28;21001;-73
2022/09/04 02:20:23;;;;;;;8.20;7.50;;;16.70;91.40;;;;;;5064824;28;20488;-70
2022/09/04 02:22:59;;;;;;;8.27;7.68;;;16.70;91.50;;;;;;5064125;28;20795;-70
2022/09/04 02:25:30;;;;;;;8.20;7.50;;;16.70;91.50;;;;;;5064947;28;20477;-73
2022/09/04 02:28:15;;;;;;;8.50;7.80;;;16.60;91.40;;;;;;5057842;28;20433;-70
2022/09/04 02:30:51;;;;;;;9.20;8.50;;;16.60;91.50;;;;;;5062538;28;20490;-71
2022/09/04 02:33:24;;;;;;;8.95;8.25;;;16.60;91.60;;;;;;5069251;28;20522;-71
2022/09/04 02:35:59;;;;;;;8.40;7.80;;;16.60;92.00;;;;;;5069377;28;20416;-71
2022/09/04 02:38:37;;;;;;;8.40;7.70;;;16.60;91.60;;;;;;5069399;28;20427;-71
2022/09/04 02:41:11;;;;;;;8.38;7.78;;;16.60;91.70;;;;;;5068702;28;20434;-72
2022/09/04 02:43:50;;;;;;;8.18;7.57;;;16.60;91.60;;;;;;5068027;28;20428;-71
2022/09/04 02:46:31;;;;;;;8.38;7.78;;;16.60;91.60;;;;;;5064408;28;20806;-70
2022/09/04 02:49:08;;;;;;;8.30;7.70;;;16.50;91.60;;;;;;5064723;28;20437;-72
2022/09/04 02:51:54;;;;;;;7.18;6.68;;;16.50;91.60;;;;;;5062658;28;20427;-72
2022/09/04 02:54:36;;;;;;;6.90;6.40;;;16.40;91.50;;;;;;5065260;28;20449;-72
2022/09/04 02:57:10;;;;;;;7.13;6.53;;;16.40;91.60;;;;;;5059372;28;20433;-71
2022/09/04 02:59:51;;;;;;;7.47;6.87;;;16.40;91.60;;;;;;5064952;28;20490;-71
2022/09/04 03:02:26;;;;;;;7.20;6.70;;;16.40;91.60;;;;;;5058045;28;20456;-72
2022/09/04 03:04:58;;;;;;;7.70;7.10;;;16.40;91.60;;;;;;5059571;28;20446;-71
2022/09/04 03:07:29;;;;;;;8.07;7.47;;;16.40;91.70;;;;;;5062353;28;20439;-72
2022/09/04 03:10:04;;;;;;;7.75;7.25;;;16.40;91.70;;;;;;5064757;28;20431;-73
2022/09/04 03:12:36;;;;;;;7.43;6.93;;;16.40;91.80;;;;;;5065743;28;20439;-72
2022/09/04 03:15:12;;;;;;;7.05;6.57;;;16.40;91.90;;;;;;5063439;28;20932;-72
2022/09/04 03:17:48;;;;;;;7.55;6.95;;;16.40;91.80;;;;;;5063636;28;20429;-71
2022/09/04 03:20:20;;;;;;;7.95;7.35;;;16.40;91.70;;;;;;5066495;28;20435;-71
2022/09/04 03:22:52;;;;;;;7.57;6.93;;;16.40;91.70;;;;;;5062554;28;20439;-72
2022/09/04 03:25:56;;;;;;;7.70;7.10;;;16.40;91.80;;;;;;5061542;28;20433;-72
2022/09/04 03:28:38;;;;;;;7.70;7.10;;;16.30;91.90;;;;;;5054509;28;20933;-71
2022/09/04 03:31:23;;;;;;;8.65;8.05;;;16.30;91.80;;;;;;5064642;28;20427;-72
2022/09/04 03:33:59;;;;;;;8.38;7.78;;;16.30;92.00;;;;;;5059847;28;20437;-71
2022/09/04 03:36:35;;;;;;;8.87;8.13;;;16.30;91.90;;;;;;5076601;28;20439;-71
2022/09/04 03:39:09;;;;;;;8.32;7.72;;;16.30;91.90;;;;;;5078131;28;20514;-73
2022/09/04 03:41:45;;;;;;;7.78;7.28;;;16.20;92.10;;;;;;5070659;28;20418;-73
2022/09/04 03:44:23;;;;;;;8.27;7.67;;;16.20;92.10;;;;;;5072369;28;20426;-72
2022/09/04 03:47:00;;;;;;;8.57;7.90;;;16.20;92.20;;;;;;5073017;28;20429;-71
2022/09/04 03:49:42;;;;;;;8.30;7.60;;;16.20;92.20;;;;;;5077674;28;20442;-71
2022/09/04 03:52:18;;;;;;;8.02;7.43;;;16.20;92.20;;;;;;5059720;28;20441;-71
2022/09/04 03:55:02;;;;;;;8.73;8.13;;;16.20;92.20;;;;;;5058679;28;21086;-71
2022/09/04 03:57:41;;;;;;;8.88;8.10;;;16.10;92.20;;;;;;5060103;28;20489;-71
2022/09/04 04:00:14;;;;;;;9.18;8.48;;;16.10;92.20;;;;;;5063214;28;20805;-71
2022/09/04 04:03:05;;;;;;;9.27;8.57;;;16.10;92.30;;;;;;5057500;28;20487;-70
2022/09/04 04:05:48;;;;;;;9.90;9.10;;;16.10;92.40;;;;;;5065560;28;20431;-70
2022/09/04 04:08:41;;;;;;;9.35;8.60;;;16.10;92.40;;;;;;5060093;28;20411;-71
2022/09/04 04:11:33;;;;;;;8.77;8.07;;;16.10;92.50;;;;;;5063561;28;20440;-71
2022/09/04 04:14:20;;;;;;;9.07;8.47;;;16.10;92.50;;;;;;5055444;28;20423;-71
2022/09/04 04:16:58;;;;;;;9.25;8.45;;;16.10;92.60;;;;;;5060612;28;20457;-71
2022/09/04 04:19:35;;;;;;;8.63;7.93;;;16.10;92.50;;;;;;5060850;28;20435;-71
2022/09/04 04:22:28;;;;;;;8.38;7.78;;;16.10;92.50;;;;;;5058674;28;21018;-70
2022/09/04 04:25:15;;;;;;;7.68;7.07;;;16.10;92.50;;;;;;5065832;28;20438;-71
2022/09/04 04:27:53;;;;;;;7.70;7.20;;;16.10;92.50;;;;;;5056684;28;20429;-71
2022/09/04 04:30:21;;;;;;;7.47;6.97;;;16.10;92.40;;;;;;5060767;28;20431;-71
2022/09/04 04:33:16;;;;;;;7.40;6.90;;;16.10;92.80;;;;;;5057532;28;20435;-71
2022/09/04 04:35:53;;;;;;;7.53;6.93;;;16.10;92.30;;;;;;5052464;28;20437;-71
2022/09/04 04:38:42;;;;;;;7.90;7.30;;;16.10;92.20;;;;;;5062312;28;20804;-71
2022/09/04 04:42:02;;;;;;;7.63;7.03;;;16.00;92.20;;;;;;5058282;28;20516;-70
2022/09/04 04:45:48;;;;;;;8.18;7.47;;;16.10;92.30;;;;;;5077257;28;20419;-70
2022/09/04 04:47:26;;;;;;;7.75;7.05;;;16.00;92.30;;;;;;5078636;28;20419;-71
2022/09/04 04:50:05;;;;;;;7.20;6.70;;;16.00;92.30;;;;;;5087316;28;20450;-70
2022/09/04 04:52:52;;;;;;;7.43;6.82;;;16.00;92.30;;;;;;5067050;28;20428;-72
2022/09/04 04:55:37;;;;;;;7.00;6.50;;;16.00;92.30;;;;;;5063970;28;20525;-71
2022/09/04 04:58:43;;;;;;;7.15;6.65;;;16.00;92.40;;;;;;5063029;28;20439;-72
2022/09/04 05:01:18;;;;;;;7.75;7.25;;;15.90;92.40;;;;;;5031049;28;20907;-71
2022/09/04 05:03:59;;;;;;;7.78;7.18;;;15.90;92.40;;;;;;5066917;28;20438;-72
2022/09/04 05:06:35;;;;;;;7.80;7.30;;;15.90;92.40;;;;;;5063161;28;20438;-71
2022/09/04 05:09:10;;;;;;;7.97;7.38;;;15.90;92.30;;;;;;5065236;28;20442;-72
2022/09/04 05:11:48;;;;;;;7.55;6.95;;;16.00;92.30;;;;;;5067722;28;20438;-71
2022/09/04 05:14:29;;;;;;;7.10;6.60;;;15.90;92.20;;;;;;5058283;28;20948;-72
2022/09/04 05:17:04;;;;;;;8.30;7.70;;;15.90;92.20;;;;;;5067557;28;20537;-71
2022/09/04 05:19:38;;;;;;;8.07;7.38;;;15.90;92.20;;;;;;5065304;28;20448;-73
2022/09/04 05:22:13;;;;;;;8.30;7.50;;;15.90;92.20;;;;;;5063959;28;20453;-71
2022/09/04 05:24:50;;;;;;;8.40;7.80;;;15.90;92.10;;;;;;5062801;28;20427;-71
2022/09/04 05:27:43;;;;;;;7.88;7.30;;;15.90;92.10;;;;;;5070841;28;20427;-71
2022/09/04 05:30:16;;;;;;;8.27;7.68;;;15.90;92.30;;;;;;5057220;28;20417;-71
2022/09/04 05:32:53;;;;;;;8.68;7.97;;;15.90;92.20;;;;;;5067328;28;20427;-71
2022/09/04 05:35:26;;;;;;;8.10;7.50;;;15.90;92.30;;;;;;5070364;28;20435;-71
2022/09/04 05:38:02;;;;;;;8.50;7.90;;;15.90;92.20;;;;;;5071074;28;20500;-71
2022/09/04 05:40:32;;;;;;;8.82;8.13;;;15.90;92.20;;;;;;5070664;28;20419;-71
2022/09/04 05:43:23;;;;;;;9.00;8.30;;;15.90;92.30;;;;;;5063215;28;20431;-70
2022/09/04 05:46:02;;;;;;;8.80;8.10;;;15.90;92.40;;;;;;5070054;28;20418;-72
2022/09/04 05:48:35;;;;;;;8.32;7.72;;;15.90;92.30;;;;;;5068765;28;20414;-71
2022/09/04 05:51:24;;;;;;;9.07;8.48;;;16.00;92.30;;;;;;5069805;28;20423;-71
2022/09/04 05:54:10;;;;;;;8.82;8.13;;;16.00;92.20;;;;;;5068833;28;20435;-71
2022/09/04 05:57:02;;;;;;;8.95;8.35;;;16.00;92.10;;;;;;5068801;28;20809;-71
2022/09/04 06:00:02;;;;;;;9.60;8.80;;;16.00;92.00;;;;;;5073613;28;20443;-72
2022/09/04 06:03:11;;;;;;;9.40;8.70;;;16.00;91.90;;;;;;5067420;28;20435;-72
2022/09/04 06:05:57;;;;;;;9.25;8.55;;;16.10;92.00;;;;;;5026878;28;20440;-73
2022/09/04 06:08:35;;;;;;;9.15;8.50;;;16.10;92.00;;;;;;5061672;28;20428;-72
2022/09/04 06:11:23;;;;;;;8.50;7.80;;;16.10;92.00;;;;;;5057840;28;20427;-73
2022/09/04 06:14:19;;;;;;;7.97;7.47;;;16.20;92.10;;;;;;5066316;28;20427;-72
2022/09/04 06:16:59;;;;;;;8.52;7.93;;;16.30;92.00;;;;;;5038617;28;20433;-72
2022/09/04 06:19:43;;;;;;;9.57;8.87;;;16.40;91.60;;;;;;5080533;28;20428;-72
2022/09/04 06:22:31;;;;;;;8.90;8.20;;;16.40;91.20;;;;;;5074911;28;20418;-71
2022/09/04 06:25:31;;;;;;;8.90;8.30;;;16.40;91.30;;;;;;5061115;28;20436;-70
2022/09/04 06:28:35;;;;;;;8.02;7.53;;;16.50;91.50;;;;;;5061935;28;20447;-71
2022/09/04 06:31:13;;;;;;;8.77;8.15;;;16.60;91.30;;;;;;5065103;28;20422;-72
2022/09/04 06:33:56;;;;;;;8.30;7.70;;;16.70;91.10;;;;;;5073927;28;20600;-71
2022/09/04 06:36:49;;;;;;;7.68;7.10;;;16.70;91.00;;;;;;5060732;28;20512;-71
2022/09/04 06:39:34;;;;;;;7.55;7.05;;;16.80;90.90;;;;;;5057907;28;20443;-71
2022/09/04 06:42:22;;;;;;;7.80;7.20;;;17.00;90.60;;;;;;5052959;28;20441;-73
2022/09/04 06:45:04;;;;;;;7.10;6.50;;;17.10;90.50;;;;;;5087475;22;20450;-70
2022/09/04 06:47:43;;;;;;;7.35;6.75;;;17.20;90.10;;;;;;5052979;28;20446;-70
2022/09/04 06:50:22;;;;;;;7.53;7.00;;;17.30;89.70;;;;;;5062143;28;20591;-70
2022/09/04 06:53:02;;;;;;;7.70;7.10;;;17.40;88.90;;;;;;5047000;28;20426;-70
2022/09/04 06:55:33;;;;;;;7.07;6.57;;;17.50;88.40;;;;;;5060061;28;20438;-70
2022/09/04 06:58:19;;;;;;;6.60;6.00;;;17.60;88.00;;;;;;5048384;28;20879;-70
2022/09/04 07:00:52;;;;;;;7.10;6.60;;;17.70;87.90;;;;;;5059966;28;20443;-70
2022/09/04 07:03:34;;;;;;;7.40;6.80;;;17.80;87.00;;;;;;5052056;28;20930;-71
2022/09/04 07:06:10;;;;;;;6.70;6.20;;;17.90;86.70;;;;;;5061591;28;20439;-72
2022/09/04 07:08:54;;;;;;;6.78;6.28;;;18.00;85.90;;;;;;5060754;28;20780;-70
2022/09/04 07:11:37;;;;;;;6.32;5.82;;;18.10;85.70;;;;;;5049129;28;20430;-70
2022/09/04 07:14:28;;;;;;;5.95;5.55;;;18.20;85.00;;;;;;5057738;28;20476;-72
2022/09/04 07:17:06;;;;;;;6.82;6.32;;;18.30;84.20;;;;;;5051973;28;21087;-72
2022/09/04 07:20:02;;;;;;;6.18;5.70;;;18.40;83.60;;;;;;5062374;28;20419;-72
2022/09/04 07:22:48;;;;;;;7.35;6.75;;;18.40;83.90;;;;;;5053814;28;20540;-71
2022/09/04 07:25:22;;;;;;;6.75;6.10;;;18.60;83.50;;;;;;5051121;28;20862;-71
2022/09/04 07:28:05;;;;;;;6.90;6.40;;;18.70;83.20;;;;;;5069864;28;22438;-71
2022/09/04 07:30:41;;;;;;;7.00;6.50;;;18.90;83.20;;;;;;5048078;28;20507;-72
2022/09/04 07:33:15;;;;;;;5.90;5.50;;;19.10;81.40;;;;;;5044201;28;20438;-72
2022/09/04 07:35:49;;;;;;;5.70;5.30;;;19.30;80.60;;;;;;5044383;28;20494;-72
2022/09/04 07:38:26;;;;;;;6.28;5.75;;;19.60;79.20;;;;;;5057862;28;20853;-71
2022/09/04 07:40:58;;;;;;;5.55;5.15;;;19.80;78.20;;;;;;5071401;28;20415;-71
2022/09/04 07:43:36;;;;;;;6.80;6.20;;;20.00;77.60;;;;;;5053532;28;20757;-71
2022/09/04 07:46:10;;;;;;;6.22;5.72;;;20.20;76.50;;;;;;5050609;28;20439;-71
2022/09/04 07:48:43;;;;;;;5.95;5.55;;;20.30;75.50;;;;;;5059431;28;20523;-72
2022/09/04 07:51:15;;;;;;;5.57;5.18;;;20.30;75.40;;;;;;5053548;28;20503;-71
2022/09/04 07:54:10;;;;;;;5.78;5.38;;;20.40;75.40;;;;;;5042641;28;20527;-74
2022/09/04 07:56:54;;;;;;;6.30;5.80;;;20.50;75.00;;;;;;5054436;28;20429;-72
2022/09/04 08:00:00;;;;;;;6.00;5.60;;;20.70;74.60;;;;;;5053211;28;20553;-71
2022/09/04 08:02:37;;;;;;;6.07;5.57;;;20.70;74.10;;;;;;5048187;28;20435;-71
2022/09/04 08:05:23;;;;;;;5.88;5.47;;;20.90;73.40;;;;;;5054027;28;20416;-72
2022/09/04 08:08:09;;;;;;;5.10;4.70;;;21.00;73.00;;;;;;5050004;28;20431;-72
2022/09/04 08:10:45;;;;;;;5.20;4.80;;;21.30;72.20;;;;;;5045033;28;20491;-71
2022/09/04 08:13:24;;;;;;;5.60;5.10;;;21.40;71.20;;;;;;5053496;28;20428;-72
2022/09/04 08:16:04;;;;;;;5.40;5.00;;;21.60;70.30;;;;;;5058588;28;20424;-72
2022/09/04 08:18:52;;;;;;;5.30;4.90;;;21.80;69.70;;;;;;5059596;28;20951;-72
2022/09/04 08:21:26;;;;;;;4.20;3.90;;;22.00;68.30;;;;;;5039673;28;20419;-72
2022/09/04 08:24:20;;;;;;;5.53;5.13;;;22.30;68.00;;;;;;5056729;28;20431;-72
2022/09/04 08:27:03;;;;;;;4.70;4.30;;;22.40;66.80;;;;;;5048856;28;20524;-72
2022/09/04 08:29:47;;;;;;;4.30;4.00;;;22.60;66.40;;;;;;5052469;28;20429;-72
2022/09/04 08:32:32;;;;;;;5.25;4.85;;;22.80;66.00;;;;;;5052652;28;20487;-71
2022/09/04 08:35:13;;;;;;;5.10;4.70;;;23.00;64.60;;;;;;5055399;28;20439;-71
2022/09/04 08:37:54;;;;;;;5.37;4.90;;;23.10;63.90;;;;;;5049920;28;21219;-70
2022/09/04 08:40:43;;;;;;;4.80;4.40;;;23.00;64.00;;;;;;5064032;28;20839;-74
2022/09/04 08:43:29;;;;;;;4.90;4.50;;;23.10;64.30;;;;;;5055760;28;20451;-73
2022/09/04 08:46:28;;;;;;;4.50;4.10;;;23.30;63.20;;;;;;5058593;28;21035;-73
2022/09/04 08:49:27;;;;;;;4.90;4.50;;;23.50;62.80;;;;;;5049674;28;20508;-74
2022/09/04 08:52:26;;;;;;;4.50;4.00;;;23.70;62.00;;;;;;5024384;28;20498;-72
2022/09/04 08:55:22;;;;;;;4.10;3.70;;;23.90;61.00;;;;;;5057086;28;20863;-72
2022/09/04 08:58:16;;;;;;;3.90;3.50;;;24.00;60.60;;;;;;5055594;28;20462;-72
2022/09/04 09:01:14;;;;;;;3.47;3.17;;;24.40;59.80;;;;;;5050029;28;20481;-72
2022/09/04 09:04:14;;;;;;;4.20;3.80;;;24.80;58.70;;;;;;5063440;28;20763;-72
2022/09/04 09:07:01;;;;;;;4.00;3.70;;;24.90;57.60;;;;;;5052989;28;20563;-72
2022/09/04 09:10:05;;;;;;;3.60;3.40;;;25.10;57.10;;;;;;5047502;28;20514;-73
2022/09/04 09:12:59;;;;;;;3.90;3.30;;;25.20;56.30;;;;;;5057405;28;20758;-72
2022/09/04 09:15:40;;;;;;;3.33;3.10;;;25.40;56.30;;;;;;5051971;28;20413;-73
2022/09/04 09:18:30;;;;;;;3.80;3.50;;;25.80;55.10;;;;;;5069327;28;20447;-73
2022/09/04 09:21:05;;;;;;;3.30;3.00;;;25.80;54.60;;;;;;5062829;28;20430;-72
2022/09/04 09:23:40;;;;;;;2.80;2.60;;;25.90;54.30;;;;;;5059929;28;20451;-72
2022/09/04 09:26:27;;;;;;;3.20;2.90;;;26.30;53.60;;;;;;5053043;28;20540;-72
2022/09/04 09:29:32;;;;;;;2.90;2.70;;;26.40;53.00;;;;;;5050291;28;20427;-72
2022/09/04 09:32:44;;;;;;;3.30;3.10;;;26.40;53.20;;;;;;5060809;28;20438;-72
2022/09/04 09:35:41;;;;;;;2.55;2.35;;;26.60;52.70;;;;;;5063815;28;20427;-72
2022/09/04 09:38:38;;;;;;;2.70;2.50;;;26.90;51.70;;;;;;5061721;28;20778;-72
2022/09/04 09:41:32;;;;;;;5.22;4.28;;;27.30;50.60;;;;;;5051036;28;20518;-72
2022/09/04 09:44:34;;;;;;;5.40;4.90;;;27.60;49.70;;;;;;5050201;28;20439;-73
2022/09/04 09:47:30;;;;;;;3.00;2.20;;;27.70;49.10;;;;;;5050105;28;20459;-72
2022/09/04 09:50:35;;;;;;;2.28;2.17;;;27.70;48.40;;;;;;5052768;28;20410;-73
2022/09/04 09:53:50;;;;;;;2.03;1.92;;;27.90;48.10;;;;;;5060538;28;20753;-73
2022/09/04 09:57:00;;;;;;;2.30;2.10;;;28.00;48.10;;;;;;5062123;28;20767;-74
2022/09/04 10:00:04;;;;;;;2.30;2.10;;;28.10;48.40;;;;;;5049840;28;20499;-72
2022/09/04 10:03:13;;;;;;;2.00;1.90;;;28.30;47.40;;;;;;5055629;28;20474;-73
2022/09/04 10:05:58;;;;;;;2.20;2.00;;;28.50;47.00;;;;;;5063154;28;20415;-72
2022/09/04 10:08:51;;;;;;;2.20;2.00;;;28.60;47.30;;;;;;5061812;28;20882;-71
2022/09/04 10:11:58;;;;;;;2.78;2.00;;;28.50;46.60;;;;;;5048114;28;20434;-74
2022/09/04 10:14:57;;;;;;;1.90;1.80;;;28.70;45.80;;;;;;5053286;28;20919;-73
2022/09/04 10:18:10;;;;;;;2.30;2.10;;;28.90;45.90;;;;;;5062274;28;20945;-73
2022/09/04 10:21:11;;;;;;;3.17;1.92;;;29.10;45.20;;;;;;5065416;28;20495;-73
2022/09/04 10:24:09;;;;;;;3.70;2.10;;;29.10;45.00;;;;;;5067419;28;21207;-72
2022/09/04 10:27:04;;;;;;;2.53;2.33;;;29.10;45.10;;;;;;5052238;28;20429;-72
2022/09/04 10:30:09;;;;;;;2.90;1.90;;;29.00;44.70;;;;;;5061486;28;20450;-71
2022/09/04 10:33:03;;;;;;;2.50;2.30;;;28.70;45.60;;;;;;5023803;28;20856;-73
2022/09/04 10:35:39;;;;;;;2.22;2.13;;;29.10;45.10;;;;;;5059696;28;20421;-73
2022/09/04 10:38:32;;;;;;;3.47;2.00;;;29.50;44.50;;;;;;5057059;28;20424;-73
2022/09/04 10:41:34;;;;;;;1.80;1.70;;;29.70;43.90;;;;;;5047339;28;20444;-73
2022/09/04 10:44:32;;;;;;;1.70;1.60;;;29.80;43.40;;;;;;5049327;28;20428;-74
2022/09/04 10:47:11;;;;;;;2.13;2.00;;;30.10;42.90;;;;;;5046132;28;20518;-73
2022/09/04 10:50:00;;;;;;;2.30;1.70;;;30.30;43.00;;;;;;5062310;28;20926;-74
2022/09/04 10:53:00;;;;;;;3.03;2.00;;;30.30;42.00;;;;;;5051810;28;20417;-73
2022/09/04 10:56:00;;;;;;;2.28;2.00;;;30.40;41.70;;;;;;5027536;28;20575;-72
2022/09/04 10:58:38;;;;;;;1.80;1.70;;;30.20;42.10;;;;;;5076519;28;20415;-72
2022/09/04 11:01:43;;;;;;;1.80;1.70;;;30.10;42.10;;;;;;5060348;28;20472;-74
2022/09/04 11:04:38;;;;;;;2.20;2.00;;;30.20;42.30;;;;;;5074073;28;20492;-72
2022/09/04 11:07:32;;;;;;;3.25;2.10;;;30.10;41.90;;;;;;5048763;28;20450;-71
2022/09/04 11:10:27;;;;;;;2.50;2.30;;;30.10;42.30;;;;;;5052477;28;20424;-73
2022/09/04 11:13:27;;;;;;;1.92;1.80;;;30.10;42.00;;;;;;5058652;28;20423;-74
2022/09/04 11:16:33;;;;;;;3.20;1.92;;;30.30;42.80;;;;;;5046452;28;20470;-73
2022/09/04 11:19:47;;;;;;;3.00;2.10;;;30.50;41.00;;;;;;4977873;28;20740;-72
2022/09/04 11:22:52;;;;;;;1.73;1.60;;;30.80;40.90;;;;;;5035320;28;20419;-65
2022/09/04 11:26:04;;;;;;;1.70;1.60;;;30.50;41.00;;;;;;4982572;28;20473;-63
2022/09/04 11:28:57;;;;;;;1.40;1.30;;;30.00;40.60;;;;;;5056276;28;20438;-63
2022/09/04 11:31:53;;;;;;;1.63;1.50;;;30.30;40.20;;;;;;5055413;28;20419;-63
2022/09/04 11:35:01;;;;;;;1.80;1.70;;;30.40;39.80;;;;;;5061822;28;20506;-64
2022/09/04 11:37:59;;;;;;;3.20;1.70;;;30.40;41.20;;;;;;5028311;28;20443;-65
2022/09/04 11:40:54;;;;;;;2.47;1.60;;;30.40;41.80;;;;;;5046180;28;20417;-66
2022/09/04 11:43:50;;;;;;;2.20;1.70;;;29.90;42.00;;;;;;5059531;28;20886;-65
2022/09/04 11:46:41;;;;;;;1.50;1.40;;;29.80;42.10;;;;;;5039581;28;20481;-65
2022/09/04 11:49:30;;;;;;;1.50;1.40;;;30.00;39.80;;;;;;5056820;28;20536;-64
2022/09/04 11:52:25;;;;;;;2.55;1.60;;;30.60;39.60;;;;;;5050943;28;20435;-64
2022/09/04 11:55:24;;;;;;;1.80;1.70;;;31.10;38.90;;;;;;5057850;28;20429;-65
2022/09/04 11:58:03;;;;;;;1.90;1.70;;;30.90;38.90;;;;;;5049072;28;20461;-66
2022/09/04 12:00:42;;;;;;;2.22;2.03;;;30.50;39.40;;;;;;5046078;28;20928;-65
2022/09/04 12:03:31;;;;;;;1.90;1.60;;;30.40;39.00;;;;;;5060350;28;20432;-74
2022/09/04 12:06:08;;;;;;;1.60;1.50;;;30.50;39.50;;;;;;5056021;28;20459;-73
2022/09/04 12:09:01;;;;;;;1.70;1.60;;;30.50;39.60;;;;;;5057863;28;20517;-72
2022/09/04 12:11:55;;;;;;;3.58;2.05;;;31.10;39.00;;;;;;5042467;28;20429;-74
2022/09/04 12:14:39;;;;;;;1.70;1.40;;;31.40;37.80;;;;;;5053354;28;20420;-74
2022/09/04 12:17:47;;;;;;;1.50;1.40;;;31.10;37.40;;;;;;5042878;28;20472;-73
2022/09/04 12:20:44;;;;;;;1.50;1.40;;;30.60;38.30;;;;;;5056583;28;20428;-73
2022/09/04 12:23:38;;;;;;;1.73;1.60;;;30.10;39.50;;;;;;5052735;28;20464;-73
2022/09/04 12:26:40;;;;;;;1.50;1.30;;;29.60;40.20;;;;;;5074740;28;20489;-73
2022/09/04 12:29:41;;;;;;;2.00;1.30;;;29.40;40.60;;;;;;5059892;28;20435;-74
2022/09/04 12:32:45;;;;;;;2.55;1.30;;;29.00;41.20;;;;;;5043382;28;20467;-74
2022/09/04 12:35:54;;;;;;;1.70;1.40;;;28.60;42.30;;;;;;5044713;28;20522;-73
2022/09/04 12:38:54;;;;;;;1.40;1.30;;;28.40;42.40;;;;;;5029896;28;20523;-74
2022/09/04 12:41:27;;;;;;;2.78;2.58;;;28.00;43.40;;;;;;4993926;28;20543;-73
2022/09/04 12:44:05;;;;;;;2.50;2.30;;;27.80;43.60;;;;;;5048811;28;21078;-74
2022/09/04 12:46:49;;;;;;;2.60;1.70;;;27.90;43.90;;;;;;5044547;28;20436;-74
2022/09/04 12:49:38;;;;;;;1.30;1.20;;;28.00;43.40;;;;;;5054836;28;20429;-74
2022/09/04 12:52:17;;;;;;;3.10;1.13;;;28.00;43.50;;;;;;5053087;28;20433;-74
2022/09/04 12:55:00;;;;;;;1.25;1.13;;;28.00;43.70;;;;;;5053643;28;20415;-73
2022/09/04 12:57:36;;;;;;;2.28;1.50;;;28.00;43.30;;;;;;5057360;28;20832;-74
2022/09/04 13:00:09;;;;;;;2.08;1.50;;;28.00;43.70;;;;;;5059078;28;20420;-74
2022/09/04 13:02:56;;;;;;;1.60;1.50;;;28.00;44.00;;;;;;5058711;28;20457;-73
2022/09/04 13:05:42;;;;;;;1.50;1.40;;;27.90;44.00;;;;;;5053286;28;20433;-74
2022/09/04 13:08:20;;;;;;;1.77;1.40;;;27.80;43.90;;;;;;5047333;28;20921;-73
2022/09/04 13:11:08;;;;;;;2.50;1.40;;;27.70;44.30;;;;;;5050586;28;20446;-73
2022/09/04 13:13:46;;;;;;;1.48;1.38;;;27.70;44.20;;;;;;5058509;28;20436;-73
2022/09/04 13:16:22;;;;;;;1.70;1.40;;;27.50;44.50;;;;;;5044193;28;20448;-73
2022/09/04 13:19:02;;;;;;;1.73;1.30;;;27.50;44.70;;;;;;5044557;28;21022;-73
2022/09/04 13:21:50;;;;;;;2.20;1.50;;;27.40;44.70;;;;;;5056242;28;20451;-72
2022/09/04 13:24:34;;;;;;;1.40;1.30;;;27.50;44.70;;;;;;5081539;22;20888;-77
2022/09/04 13:27:15;;;;;;;2.40;1.63;;;27.60;44.70;;;;;;5043766;28;20794;-76
2022/09/04 13:29:56;;;;;;;2.05;1.40;;;27.90;44.00;;;;;;5046438;28;20425;-77
2022/09/04 13:32:39;;;;;;;1.90;1.60;;;28.30;42.60;;;;;;5040656;28;20919;-76
2022/09/04 13:35:16;;;;;;;2.20;1.60;;;28.40;42.30;;;;;;5047165;28;20429;-77
2022/09/04 13:38:00;;;;;;;1.80;1.40;;;28.40;42.50;;;;;;5047008;28;20429;-78
2022/09/04 13:40:41;;;;;;;1.67;1.35;;;28.50;42.10;;;;;;5044371;28;20793;-77
2022/09/04 13:43:33;;;;;;;2.03;1.67;;;28.40;42.00;;;;;;5041003;28;20441;-76
2022/09/04 13:46:04;;;;;;;1.50;1.40;;;28.30;42.70;;;;;;5047863;28;20851;-76
2022/09/04 13:48:37;;;;;;;1.42;1.33;;;28.30;42.50;;;;;;5051568;28;20797;-76
2022/09/04 13:51:09;;;;;;;2.53;1.67;;;28.30;42.60;;;;;;5046778;28;20437;-77
2022/09/04 13:53:43;;;;;;;1.80;1.60;;;28.20;42.60;;;;;;5043343;28;20433;-76
2022/09/04 13:56:17;;;;;;;1.60;1.50;;;28.10;43.00;;;;;;5041927;28;20436;-77
2022/09/04 13:58:50;;;;;;;1.67;1.58;;;27.90;43.40;;;;;;5044200;28;20916;-76
2022/09/04 14:01:21;;;;;;;1.60;1.50;;;27.90;43.40;;;;;;5044399;28;20436;-76
2022/09/04 14:03:51;;;;;;;1.60;1.50;;;27.80;43.50;;;;;;5050180;28;20515;-76
2022/09/04 14:06:22;;;;;;;2.20;1.52;;;27.70;44.70;;;;;;5047310;28;20440;-76
2022/09/04 14:08:54;;;;;;;1.67;1.58;;;27.60;44.20;;;;;;5052066;28;20429;-77
2022/09/04 14:11:34;;;;;;;1.50;1.40;;;27.60;44.30;;;;;;5036378;28;20461;-76
2022/09/04 14:14:40;;;;;;;1.77;1.67;;;27.60;44.00;;;;;;5033663;28;20427;-75
2022/09/04 14:17:08;;;;;;;1.90;1.70;;;27.50;44.40;;;;;;5037955;28;20823;-73